Queen Anne, Washington
Current Conditions -  °F | °C
As of 5:53 PM on Friday 24 Oct 2014 (Local Time) from KBFI Reporting Station
Overcast Overcast  
Wind Chill: 58°   Ceiling: 14000
Heat Index: 58°   Visibility: 10mi
Dew Point: 47°   Wind: 3mph
Humidity: 67%   Direction: NA
Pressure: 29.87"   Gusts: NA
Location:  47.6307°N, 122.346°W
Report Text: KBFI 250053Z VRB03KT 10SM SCT080 OVC140 14/08 A2987 RMK AO2 SLP114 T01440083
Loading
Personal Weather Stations






























Interactive Weather Map
Tropical Storm Tracking
New forecast layout! Learn more

10-Day Weather Forecast

Advertisements
Track Severe Weather on mobile